Time;durP1;ratioP1;P1;durP2;ratioP2;P2;SDS_P1;SDS_P2;PMS_P1;PMS_P2;Temp;Humidity;BMP_temperature;BMP_pressure;BME280_temperature;BME280_humidity;BME280_pressure;Samples;Min_cycle;Max_cycle;Signal;HPM_P1;HPM_P2
2022/04/19 00:00:16;;;;;;;4.73;4.27;;;;;;;11.34;43.29;101400.72;5019998;28;20236;-70
2022/04/19 00:02:41;;;;;;;6.80;6.10;;;;;;;11.35;43.15;101398.97;5019977;28;20222;-69
2022/04/19 00:05:09;;;;;;;4.60;4.20;;;;;;;10.24;44.96;101400.28;5020191;28;20258;-70
2022/04/19 00:07:34;;;;;;;6.27;4.00;;;;;;;10.30;44.55;101392.63;5020185;28;20214;-70
2022/04/19 00:09:59;;;;;;;5.27;4.37;;;;;;;10.25;45.49;101396.84;5039255;28;20437;-70
2022/04/19 00:12:25;;;;;;;4.70;4.20;;;;;;;10.50;44.18;101397.38;5039746;28;20272;-69
2022/04/19 00:14:51;;;;;;;4.83;4.43;;;;;;;10.38;45.63;101390.22;5040084;28;20197;-70
2022/04/19 00:17:16;;;;;;;5.53;4.10;;;;;;;10.32;45.14;101397.84;5039597;28;20174;-70
2022/04/19 00:19:41;;;;;;;4.50;4.00;;;;;;;9.96;45.76;101402.31;5038869;28;20177;-72
2022/04/19 00:22:07;;;;;;;4.63;4.17;;;;;;;10.26;45.30;101393.41;5039879;28;20316;-72
2022/04/19 00:24:32;;;;;;;4.23;3.90;;;;;;;9.69;46.04;101399.94;5039588;28;20261;-71
2022/04/19 00:26:57;;;;;;;4.53;4.07;;;;;;;9.63;46.45;101390.22;5039649;28;20217;-71
2022/04/19 00:29:23;;;;;;;4.80;4.30;;;;;;;10.24;45.84;101389.88;5040034;28;20190;-71
2022/04/19 00:31:48;;;;;;;4.90;4.20;;;;;;;10.07;46.05;101395.59;5024904;28;20186;-70
2022/04/19 00:34:15;;;;;;;4.47;4.07;;;;;;;9.77;46.65;101394.06;5019632;28;20167;-71
2022/04/19 00:36:40;;;;;;;6.00;4.30;;;;;;;9.96;46.46;101394.50;5020117;28;20167;-71
2022/04/19 00:39:06;;;;;;;7.37;4.30;;;;;;;10.01;45.93;101397.19;5019473;28;20429;-72
2022/04/19 00:41:31;;;;;;;4.90;4.40;;;;;;;10.27;46.05;101393.44;5019382;28;20477;-70
2022/04/19 00:43:56;;;;;;;4.73;4.33;;;;;;;9.24;48.17;101388.41;5019950;28;20257;-69
2022/04/19 00:46:21;;;;;;;4.73;4.23;;;;;;;9.56;47.91;101388.34;5019255;28;20418;-71
2022/04/19 00:48:47;;;;;;;4.90;4.50;;;;;;;9.40;48.52;101389.69;5019356;28;20213;-71
2022/04/19 00:51:13;;;;;;;5.10;4.20;;;;;;;9.53;48.45;101380.47;5019430;28;20167;-71
2022/04/19 00:53:40;;;;;;;4.60;4.20;;;;;;;9.15;49.74;101396.00;5019166;28;20179;-72
2022/04/19 00:56:06;;;;;;;9.90;4.30;;;;;;;8.96;50.11;101398.09;5019230;28;20803;-70
2022/04/19 00:58:31;;;;;;;4.50;4.10;;;;;;;9.07;49.68;101394.06;5019573;28;20418;-71
2022/04/19 01:00:58;;;;;;;5.27;4.70;;;;;;;8.80;50.49;101393.34;5018138;28;20194;-70
2022/04/19 01:03:24;;;;;;;4.97;4.57;;;;;;;9.41;48.89;101386.25;5018816;28;20520;-71
2022/04/19 01:05:53;;;;;;;4.80;4.30;;;;;;;8.81;50.43;101388.16;5019338;28;20410;-71
2022/04/19 01:08:19;;;;;;;5.07;4.47;;;;;;;8.70;50.61;101387.88;5023884;28;20425;-70
2022/04/19 01:10:45;;;;;;;5.60;4.40;;;;;;;9.54;49.09;101379.59;5038611;28;20436;-70
2022/04/19 01:13:17;;;;;;;4.90;4.40;;;;;;;9.65;49.27;101378.16;5038842;28;20767;-71
2022/04/19 01:15:45;;;;;;;4.20;3.90;;;;;;;9.07;49.89;101388.84;5038785;28;20184;-71
2022/04/19 01:18:11;;;;;;;4.60;4.10;;;;;;;9.07;50.80;101387.97;5038639;28;20453;-70
2022/04/19 01:20:38;;;;;;;7.70;4.77;;;;;;;9.38;50.35;101388.78;5038566;28;20904;-72
2022/04/19 01:23:03;;;;;;;5.90;4.63;;;;;;;8.99;50.70;101387.78;5037898;28;20433;-73
2022/04/19 01:25:29;;;;;;;5.10;4.27;;;;;;;9.67;49.50;101389.47;5038714;28;20524;-72
2022/04/19 01:27:57;;;;;;;5.37;4.50;;;;;;;9.09;50.33;101387.19;5038399;28;20241;-72
2022/04/19 01:30:22;;;;;;;5.53;4.50;;;;;;;9.34;50.42;101385.22;5035802;28;20603;-71
2022/04/19 01:32:48;;;;;;;5.07;4.57;;;;;;;9.76;49.42;101376.66;5018477;28;20413;-71
2022/04/19 01:35:18;;;;;;;6.07;5.10;;;;;;;9.88;48.96;101376.06;5018964;28;20537;-71
2022/04/19 01:37:49;;;;;;;5.83;5.33;;;;;;;10.32;48.02;101377.88;5020073;28;20171;-71
2022/04/19 01:40:18;;;;;;;5.03;4.53;;;;;;;10.47;48.59;101374.75;5019518;28;20537;-73
2022/04/19 01:42:45;;;;;;;6.10;4.73;;;;;;;10.23;49.20;101377.72;5019577;28;20422;-71
2022/04/19 01:45:11;;;;;;;5.10;4.60;;;;;;;10.15;48.60;101382.75;5019198;28;20424;-71
2022/04/19 01:47:39;;;;;;;5.87;4.77;;;;;;;10.04;49.17;101379.00;5018739;28;20466;-71
2022/04/19 01:50:09;;;;;;;5.00;4.60;;;;;;;10.24;48.65;101384.66;5018662;28;20541;-71
2022/04/19 01:52:35;;;;;;;5.53;5.03;;;;;;;10.10;49.44;101382.63;5018649;28;20761;-72
2022/04/19 01:55:01;;;;;;;5.40;4.90;;;;;;;10.26;49.08;101378.63;5018352;28;20425;-71
2022/04/19 01:57:26;;;;;;;6.83;5.27;;;;;;;10.08;49.35;101384.34;5018378;28;20422;-71
2022/04/19 01:59:52;;;;;;;5.67;5.17;;;;;;;10.05;49.54;101380.78;5018832;28;20198;-71
2022/04/19 02:02:20;;;;;;;4.50;4.10;;;;;;;10.11;49.64;101384.41;5018086;28;20627;-71
2022/04/19 02:04:45;;;;;;;5.77;5.20;;;;;;;9.90;50.09;101378.72;5018327;28;20170;-71
2022/04/19 02:07:11;;;;;;;5.60;5.07;;;;;;;9.37;51.31;101382.66;5019307;28;20458;-71
2022/04/19 02:09:36;;;;;;;5.50;4.93;;;;;;;8.65;53.22;101386.00;5034015;28;20558;-71
2022/04/19 02:12:04;;;;;;;6.10;5.50;;;;;;;9.89;51.05;101379.53;5037913;28;20175;-71
2022/04/19 02:14:30;;;;;;;6.13;5.63;;;;;;;9.66;50.82;101379.91;5038536;28;20240;-69
2022/04/19 02:16:56;;;;;;;5.70;5.07;;;;;;;9.93;51.13;101376.16;5037936;28;20420;-68
2022/04/19 02:19:21;;;;;;;5.33;4.83;;;;;;;9.76;51.16;101371.47;5037963;28;20213;-68
2022/04/19 02:21:46;;;;;;;5.17;4.67;;;;;;;9.58;51.99;101378.84;5041435;28;20437;-70
2022/04/19 02:24:12;;;;;;;6.87;5.53;;;;;;;9.39;52.46;101381.00;5041672;28;20175;-68
2022/04/19 02:26:37;;;;;;;6.70;4.80;;;;;;;9.56;52.04;101377.94;5041790;28;20213;-68
2022/04/19 02:29:02;;;;;;;6.80;5.47;;;;;;;9.21;53.10;101383.13;5042118;28;20236;-67
2022/04/19 02:31:28;;;;;;;5.60;5.10;;;;;;;9.32;53.05;101380.81;5030735;28;20210;-68
2022/04/19 02:33:54;;;;;;;7.93;5.13;;;;;;;9.46;52.42;101386.34;5021959;28;20209;-69
2022/04/19 02:36:21;;;;;;;5.60;5.10;;;;;;;8.86;54.05;101378.78;5022289;28;20163;-67
2022/04/19 02:38:46;;;;;;;5.63;5.13;;;;;;;8.89;54.49;101381.47;5021816;28;20834;-68
2022/04/19 02:41:11;;;;;;;6.20;5.60;;;;;;;9.00;55.13;101380.84;5021553;28;20464;-67
2022/04/19 02:43:38;;;;;;;6.43;5.30;;;;;;;9.36;53.84;101386.13;5022128;28;20167;-68
2022/04/19 02:46:04;;;;;;;6.03;5.13;;;;;;;8.61;55.94;101389.34;5021749;28;20303;-67
2022/04/19 02:48:30;;;;;;;6.17;5.43;;;;;;;7.99;57.67;101387.50;5021543;28;20627;-69
2022/04/19 02:50:56;;;;;;;6.40;5.80;;;;;;;8.28;57.56;101390.97;5021769;28;20475;-69
2022/04/19 02:53:21;;;;;;;5.93;5.20;;;;;;;8.62;56.74;101380.69;5020807;28;20548;-70
2022/04/19 02:55:46;;;;;;;6.10;5.50;;;;;;;8.22;57.86;101383.00;5021432;28;20179;-71
2022/04/19 02:58:12;;;;;;;5.93;5.40;;;;;;;8.00;58.98;101390.13;5021921;28;20178;-69
2022/04/19 03:00:37;;;;;;;6.07;5.47;;;;;;;8.38;58.03;101384.34;5021398;28;20236;-70
2022/04/19 03:03:03;;;;;;;6.33;5.73;;;;;;;8.59;56.92;101384.06;5021093;28;20214;-68
2022/04/19 03:05:28;;;;;;;5.67;5.17;;;;;;;8.62;57.56;101378.09;5021866;28;20197;-69
2022/04/19 03:07:54;;;;;;;8.10;6.10;;;;;;;8.39;57.46;101378.31;5020545;28;20438;-75
2022/04/19 03:10:21;;;;;;;6.50;5.90;;;;;;;8.84;57.22;101374.38;5021230;28;20167;-73
2022/04/19 03:12:46;;;;;;;6.67;6.03;;;;;;;9.02;56.76;101379.19;5021545;28;20171;-73
2022/04/19 03:15:12;;;;;;;6.30;5.70;;;;;;;8.16;57.87;101382.78;5022134;28;20476;-73
2022/04/19 03:17:38;;;;;;;6.37;5.77;;;;;;;8.40;57.63;101378.34;5020415;28;20173;-73
2022/04/19 03:20:07;;;;;;;7.60;6.10;;;;;;;7.98;58.56;101377.94;5020955;28;20182;-73
2022/04/19 03:28:00;;;;;;;6.03;5.43;;;;;;;8.21;58.24;101376.03;5020922;28;20496;-74
2022/04/19 03:30:26;;;;;;;6.10;5.50;;;;;;;8.32;57.76;101374.66;5021159;28;20803;-75
2022/04/19 03:32:54;;;;;;;6.93;6.33;;;;;;;8.75;56.81;101382.78;5020497;28;20556;-75
2022/04/19 03:35:19;;;;;;;6.40;5.80;;;;;;;8.60;57.66;101378.03;5021105;28;20436;-74
2022/04/19 03:37:45;;;;;;;8.17;5.80;;;;;;;9.06;56.42;101381.00;5021155;28;20398;-75
2022/04/19 03:40:11;;;;;;;7.63;6.83;;;;;;;9.14;55.72;101384.69;5020977;28;20186;-76
2022/04/19 03:42:36;;;;;;;5.80;5.23;;;;;;;8.72;55.90;101386.19;5020711;28;20171;-73
2022/04/19 03:45:01;;;;;;;7.17;6.07;;;;;;;8.54;56.17;101388.28;5021252;28;20171;-73
2022/04/19 03:47:27;;;;;;;9.60;6.13;;;;;;;8.82;55.81;101379.53;5020627;28;20206;-73
2022/04/19 03:49:52;;;;;;;7.37;6.67;;;;;;;8.68;56.34;101381.75;5020614;28;20515;-74
2022/04/19 03:52:17;;;;;;;5.87;5.37;;;;;;;7.81;57.18;101396.47;5020705;28;20540;-74
2022/04/19 03:54:43;;;;;;;7.53;6.40;;;;;;;8.57;56.40;101391.84;5019716;28;20206;-74
2022/04/19 03:57:08;;;;;;;8.47;6.17;;;;;;;8.31;56.93;101383.28;5020213;28;20225;-74
2022/04/19 03:59:37;;;;;;;10.87;6.33;;;;;;;7.96;57.18;101385.69;5020896;28;20168;-74
2022/04/19 04:02:03;;;;;;;7.90;6.57;;;;;;;8.87;55.42;101377.91;5020004;28;20186;-74
2022/04/19 04:04:34;;;;;;;6.73;6.03;;;;;;;9.07;54.75;101382.78;5020266;28;20421;-74
2022/04/19 04:07:00;;;;;;;6.43;5.83;;;;;;;8.75;55.29;101383.69;5020655;28;20210;-73
2022/04/19 04:09:26;;;;;;;6.50;5.90;;;;;;;8.23;56.81;101377.84;5020230;28;20418;-74
2022/04/19 04:11:52;;;;;;;8.67;6.00;;;;;;;7.93;57.12;101385.59;5019101;28;20898;-74
2022/04/19 04:14:17;;;;;;;9.63;6.30;;;;;;;8.31;55.95;101380.66;5020692;28;20436;-74
2022/04/19 04:16:43;;;;;;;8.00;6.03;;;;;;;8.42;55.38;101376.66;5020101;28;20182;-72
2022/04/19 04:19:08;;;;;;;6.87;5.70;;;;;;;7.71;56.25;101377.16;5020131;28;20435;-72
2022/04/19 04:21:33;;;;;;;6.40;5.80;;;;;;;8.21;56.11;101376.94;5020050;28;20217;-74
2022/04/19 04:23:59;;;;;;;7.17;6.33;;;;;;;8.59;55.35;101382.38;5019961;28;20178;-72
2022/04/19 04:26:24;;;;;;;6.53;5.60;;;;;;;9.06;53.62;101384.47;5019738;28;20215;-73
2022/04/19 04:28:49;;;;;;;10.17;6.70;;;;;;;8.97;54.09;101384.28;5020410;28;20552;-73
2022/04/19 04:31:15;;;;;;;9.43;6.10;;;;;;;8.77;54.32;101382.00;5018821;28;20175;-74
2022/04/19 04:33:40;;;;;;;6.70;5.90;;;;;;;8.80;53.78;101388.13;5019696;28;20190;-73
2022/04/19 04:36:05;;;;;;;6.53;5.93;;;;;;;8.92;54.03;101384.13;5019418;28;20171;-72
2022/04/19 04:38:30;;;;;;;7.17;6.47;;;;;;;8.89;54.39;101388.34;5019758;28;20182;-72
2022/04/19 04:40:56;;;;;;;6.90;6.20;;;;;;;8.91;53.63;101382.34;5019524;28;20171;-73
2022/04/19 04:43:21;;;;;;;6.97;6.00;;;;;;;8.72;54.35;101387.91;5019179;28;20254;-74
2022/04/19 04:49:35;;;;;;;7.53;6.23;;;;;;;8.18;55.27;101389.81;5019227;28;20604;-74
2022/04/19 04:51:15;;;;;;;7.33;6.57;;;;;;;7.66;56.67;101401.16;5019174;28;20420;-73
2022/04/19 04:53:41;;;;;;;6.97;6.27;;;;;;;8.31;55.97;101393.66;5019587;28;20422;-73
2022/04/19 04:56:06;;;;;;;7.87;6.37;;;;;;;7.96;55.99;101396.06;5019193;28;20187;-73
2022/04/19 04:58:31;;;;;;;7.53;6.60;;;;;;;8.11;55.04;101393.06;5019406;28;20537;-73
2022/04/19 05:00:56;;;;;;;6.77;6.17;;;;;;;8.60;54.35;101393.63;5019310;28;20187;-74
2022/04/19 05:03:22;;;;;;;7.50;6.20;;;;;;;8.48;53.15;101390.69;5018885;28;20227;-73
2022/04/19 05:05:47;;;;;;;6.60;5.90;;;;;;;8.65;53.32;101394.66;5019670;28;20488;-73
2022/04/19 05:08:14;;;;;;;8.23;5.93;;;;;;;7.50;55.63;101402.41;5019965;28;20202;-72
2022/04/19 05:10:40;;;;;;;6.90;6.10;;;;;;;8.56;54.11;101397.00;5018899;28;20183;-72
2022/04/19 05:13:05;;;;;;;7.17;6.30;;;;;;;8.67;53.43;101390.38;5018912;28;20410;-74
2022/04/19 05:15:30;;;;;;;7.00;6.10;;;;;;;8.62;53.02;101388.47;5019172;28;20171;-73
2022/04/19 05:17:56;;;;;;;9.10;6.00;;;;;;;8.81;52.39;101395.97;5018910;28;20298;-73
2022/04/19 05:20:21;;;;;;;7.50;5.77;;;;;;;9.83;49.87;101392.44;5018980;28;20185;-73
2022/04/19 05:22:47;;;;;;;6.77;6.07;;;;;;;9.49;50.38;101389.03;5019474;28;20171;-73
2022/04/19 05:25:13;;;;;;;7.03;5.93;;;;;;;9.30;51.02;101393.78;5018923;28;20178;-73
2022/04/19 05:27:38;;;;;;;7.20;5.57;;;;;;;7.85;52.01;101400.94;5018807;28;20465;-72
2022/04/19 05:30:04;;;;;;;7.20;5.87;;;;;;;8.73;51.04;101392.28;5019013;28;20205;-72
2022/04/19 05:32:29;;;;;;;6.10;5.27;;;;;;;8.38;51.10;101397.31;5018558;28;20248;-73
2022/04/19 05:34:55;;;;;;;7.70;5.67;;;;;;;8.14;51.06;101397.47;5018647;28;20178;-72
2022/04/19 05:37:20;;;;;;;6.50;5.87;;;;;;;8.58;49.83;101392.72;5019097;28;20228;-72
2022/04/19 05:39:46;;;;;;;5.70;5.20;;;;;;;7.92;50.70;101402.00;5018393;28;20175;-72
2022/04/19 05:42:12;;;;;;;6.33;5.73;;;;;;;9.27;48.51;101398.91;5018344;28;20187;-73
2022/04/19 05:44:38;;;;;;;8.13;5.73;;;;;;;11.26;43.09;101384.06;5018724;28;20547;-73
2022/04/19 05:47:04;;;;;;;10.13;5.37;;;;;;;13.44;39.51;101369.38;5018441;28;20458;-73
2022/04/19 05:49:29;;;;;;;6.30;5.70;;;;;;;13.73;37.59;101373.09;5018370;28;20702;-73
2022/04/19 05:51:55;;;;;;;6.13;5.40;;;;;;;14.55;36.41;101363.88;5018657;28;20410;-74
2022/04/19 05:54:20;;;;;;;7.50;5.73;;;;;;;14.22;35.82;101375.09;5018168;28;20189;-73
2022/04/19 05:56:45;;;;;;;10.87;5.90;;;;;;;15.04;34.48;101362.28;5018144;28;20174;-73
2022/04/19 05:59:10;;;;;;;6.40;5.73;;;;;;;12.40;37.73;101382.25;5018482;28;20521;-71
2022/04/19 06:07:03;;;;;;;5.83;5.23;;;;;;;14.01;34.65;101379.38;5019991;28;20917;-74
2022/04/19 06:09:29;;;;;;;5.70;5.20;;;;;;;13.92;35.15;101379.31;5037766;28;20504;-76
2022/04/19 06:11:54;;;;;;;5.90;5.40;;;;;;;13.91;34.75;101372.31;5037512;28;20209;-74
2022/04/19 06:14:19;;;;;;;5.17;4.77;;;;;;;12.98;36.78;101387.28;5021331;28;20191;-75
2022/04/19 06:16:45;;;;;;;5.37;4.97;;;;;;;12.69;36.81;101390.47;5017693;28;20178;-75
2022/04/19 06:19:10;;;;;;;6.00;5.50;;;;;;;12.69;37.23;101387.84;5018350;28;20178;-74
2022/04/19 06:21:35;;;;;;;5.77;5.10;;;;;;;16.29;31.96;101373.53;5017976;28;20182;-74
2022/04/19 06:24:04;;;;;;;7.10;5.10;;;;;;;17.32;29.78;101376.47;5018542;28;20414;-75
2022/04/19 06:26:29;;;;;;;6.57;5.40;;;;;;;17.34;30.24;101383.44;5017969;28;20646;-74
2022/04/19 06:28:55;;;;;;;5.70;5.20;;;;;;;17.48;29.74;101377.19;5017654;28;20452;-74
2022/04/19 06:31:21;;;;;;;5.53;5.07;;;;;;;15.71;32.11;101387.66;5017950;28;20461;-75
2022/04/19 06:33:46;;;;;;;5.90;4.77;;;;;;;14.88;32.95;101387.63;5022281;28;20440;-73
2022/04/19 06:36:11;;;;;;;7.23;5.30;;;;;;;13.78;35.59;101392.34;5034946;28;20173;-74
2022/04/19 06:38:36;;;;;;;5.50;5.00;;;;;;;14.86;32.80;101381.50;5018672;28;20215;-74
2022/04/19 06:41:02;;;;;;;5.60;5.10;;;;;;;14.01;34.48;101383.75;5032644;28;20193;-72
2022/04/19 06:43:27;;;;;;;5.30;4.80;;;;;;;15.21;32.74;101384.19;5032123;28;20567;-74
2022/04/19 06:45:55;;;;;;;5.57;5.13;;;;;;;13.86;33.79;101393.28;5028752;28;20177;-75
2022/04/19 06:48:20;;;;;;;8.00;4.70;;;;;;;15.30;31.91;101383.28;5036689;28;20183;-74
2022/04/19 06:50:46;;;;;;;6.03;5.53;;;;;;;15.62;31.60;101387.69;5030326;28;20705;-74
2022/04/19 06:53:11;;;;;;;5.30;4.80;;;;;;;13.85;33.25;101398.50;5020359;28;20190;-74
2022/04/19 06:55:36;;;;;;;5.70;5.20;;;;;;;14.27;33.23;101395.22;5023164;28;20222;-73
2022/04/19 06:58:01;;;;;;;5.63;5.13;;;;;;;13.89;34.03;101397.66;5023756;28;20587;-72
2022/04/19 07:00:27;;;;;;;5.87;5.37;;;;;;;14.34;32.48;101404.00;5032661;28;20202;-72
2022/04/19 07:02:52;;;;;;;6.30;5.80;;;;;;;14.77;32.08;101395.47;5026254;28;20246;-73
2022/04/19 07:05:17;;;;;;;5.60;5.10;;;;;;;13.38;33.80;101408.63;5035690;28;20188;-73
2022/04/19 07:07:43;;;;;;;5.80;4.80;;;;;;;12.57;36.07;101413.84;5018561;28;20234;-77
2022/04/19 07:10:11;;;;;;;5.50;5.00;;;;;;;13.15;34.46;101410.97;5033033;28;20174;-75
2022/04/19 07:12:37;;;;;;;5.30;4.80;;;;;;;15.98;30.47;101391.16;5037566;28;20269;-72
2022/04/19 07:15:03;;;;;;;7.40;5.10;;;;;;;16.86;29.18;101397.81;5021142;28;20423;-74
2022/04/19 07:17:28;;;;;;;5.83;5.13;;;;;;;17.50;28.15;101392.09;5021431;28;20437;-73
2022/04/19 07:28:10;;;;;;;5.93;5.43;;;;;;;17.54;28.99;101390.31;5029798;28;20459;-75
2022/04/19 07:30:36;;;;;;;6.10;5.50;;;;;;;17.34;28.38;101399.25;5022483;28;20426;-73
2022/04/19 07:33:02;;;;;;;8.17;5.50;;;;;;;16.46;30.05;101401.53;5034579;28;20174;-74
2022/04/19 07:35:28;;;;;;;6.10;5.50;;;;;;;18.35;27.51;101393.03;5025582;28;20201;-74
2022/04/19 07:37:53;;;;;;;6.10;5.50;;;;;;;17.60;28.20;101399.94;5020881;28;20426;-72
2022/04/19 07:40:18;;;;;;;5.97;5.37;;;;;;;15.05;32.93;101406.91;5031463;28;20317;-73
2022/04/19 07:42:44;;;;;;;5.70;5.20;;;;;;;14.94;32.85;101408.66;5024450;28;20557;-73
2022/04/19 07:45:09;;;;;;;6.70;6.00;;;;;;;17.92;28.94;101398.78;5033174;28;20179;-74
2022/04/19 07:47:35;;;;;;;5.80;5.40;;;;;;;19.09;27.29;101383.22;5028080;28;20206;-74
2022/04/19 07:50:01;;;;;;;6.33;5.73;;;;;;;16.53;30.18;101402.38;5039714;28;20174;-74
2022/04/19 07:52:26;;;;;;;6.70;5.37;;;;;;;14.49;33.41;101416.31;5022402;28;20453;-74
2022/04/19 07:54:52;;;;;;;5.87;5.37;;;;;;;14.49;34.62;101409.34;5024649;28;20417;-74
2022/04/19 07:57:20;;;;;;;6.90;6.30;;;;;;;15.95;33.04;101405.19;5028003;28;20182;-70
2022/04/19 07:59:46;;;;;;;7.50;5.40;;;;;;;18.51;28.32;101386.66;5029140;28;20269;-74
2022/04/19 08:02:11;;;;;;;6.90;6.20;;;;;;;17.67;29.44;101396.34;5019184;28;20512;-75
2022/04/19 08:04:36;;;;;;;6.97;6.37;;;;;;;17.78;29.40;101397.13;5027385;28;20236;-71
2022/04/19 08:07:02;;;;;;;6.40;5.43;;;;;;;17.53;29.50;101388.56;5016993;28;20206;-75
2022/04/19 08:09:27;;;;;;;7.33;6.63;;;;;;;14.85;33.42;101401.63;5025175;28;20190;-73
2022/04/19 08:11:53;;;;;;;7.30;6.70;;;;;;;18.33;29.21;101389.53;5031663;28;20182;-72
2022/04/19 08:14:18;;;;;;;6.90;6.30;;;;;;;14.93;33.50;101393.78;5021149;28;20194;-75
2022/04/19 08:16:44;;;;;;;7.57;6.87;;;;;;;18.13;29.58;101387.13;5022035;28;20171;-74
2022/04/19 08:19:09;;;;;;;6.90;6.30;;;;;;;18.68;27.77;101382.91;5025042;28;20232;-74
2022/04/19 08:21:34;;;;;;;6.10;5.50;;;;;;;18.80;28.37;101372.16;5029222;28;20489;-72
2022/04/19 08:24:00;;;;;;;7.80;6.30;;;;;;;21.45;25.43;101373.19;5032930;28;20515;-73
2022/04/19 08:26:25;;;;;;;6.03;5.53;;;;;;;19.33;27.46;101382.81;5022457;28;20611;-74
2022/04/19 08:28:50;;;;;;;6.17;5.57;;;;;;;20.40;26.85;101378.22;5035402;28;20646;-74
2022/04/19 08:31:16;;;;;;;8.70;4.80;;;;;;;17.97;29.34;101378.53;5012818;28;20226;-72
2022/04/19 08:33:41;;;;;;;6.77;6.17;;;;;;;21.62;25.73;101369.25;5021529;28;20186;-73
2022/04/19 08:36:07;;;;;;;5.50;5.00;;;;;;;21.07;25.30;101367.06;5023143;28;20214;-73
2022/04/19 08:38:32;;;;;;;5.43;4.93;;;;;;;20.29;26.53;101373.16;5027753;28;20193;-74
2022/04/19 08:40:58;;;;;;;5.50;5.00;;;;;;;20.39;26.67;101375.63;5035497;28;20520;-74
2022/04/19 08:43:23;;;;;;;5.07;4.53;;;;;;;20.84;25.73;101368.47;5028021;28;20178;-73
2022/04/19 08:45:49;;;;;;;4.40;4.00;;;;;;;19.43;27.60;101374.75;5025811;28;20187;-73
2022/04/19 08:48:15;;;;;;;5.27;4.57;;;;;;;20.47;27.27;101363.97;5027633;28;20191;-74
2022/04/19 08:50:42;;;;;;;7.83;4.73;;;;;;;22.64;24.05;101359.28;5022373;28;20217;-73
2022/04/19 08:58:36;;;;;;;5.43;4.00;;;;;;;22.06;24.39;101353.88;5022446;28;20449;-74
2022/04/19 09:01:01;;;;;;;5.37;4.87;;;;;;;23.31;23.72;101358.06;5024020;28;20421;-74
2022/04/19 09:03:27;;;;;;;8.70;5.30;;;;;;;25.01;22.27;101350.91;5029865;28;20227;-74
2022/04/19 09:05:53;;;;;;;5.50;5.00;;;;;;;21.95;25.52;101361.28;5017361;28;20182;-75
2022/04/19 09:08:19;;;;;;;6.20;5.20;;;;;;;23.51;23.22;101344.03;5019201;28;20573;-76
2022/04/19 09:10:44;;;;;;;5.90;5.30;;;;;;;20.10;27.99;101364.72;5034553;28;20217;-76
2022/04/19 09:13:11;;;;;;;6.00;5.47;;;;;;;17.68;31.29;101377.91;5026380;28;20187;-75
2022/04/19 09:15:41;;;;;;;7.57;5.60;;;;;;;19.23;29.47;101361.84;5021338;28;20174;-74
2022/04/19 09:18:30;;;;;;;10.80;6.20;;;;;;;21.76;26.38;101356.47;5029248;28;20447;-74
2022/04/19 09:20:57;;;;;;;6.33;5.70;;;;;;;19.38;28.79;101373.97;5023900;28;20421;-75
2022/04/19 09:23:22;;;;;;;6.87;5.23;;;;;;;19.98;28.11;101367.63;5028708;28;20433;-74
2022/04/19 09:26:08;;;;;;;7.47;6.67;;;;;;;18.27;29.19;101387.84;5028154;28;20903;-75
2022/04/19 09:28:34;;;;;;;7.20;6.00;;;;;;;17.00;32.44;101382.84;5027571;28;20437;-75
2022/04/19 09:31:00;;;;;;;6.67;5.97;;;;;;;17.98;31.37;101374.97;5031706;28;20472;-73
2022/04/19 09:33:29;;;;;;;7.37;6.00;;;;;;;18.71;29.66;101377.56;5021213;28;20185;-75
2022/04/19 09:35:57;;;;;;;7.00;6.30;;;;;;;19.78;28.98;101382.06;5021805;28;20448;-75
2022/04/19 09:38:35;;;;;;;10.30;6.83;;;;;;;17.11;31.57;101388.91;5021097;28;20521;-76
2022/04/19 09:41:02;;;;;;;6.63;6.03;;;;;;;19.67;28.21;101365.50;5023339;28;20429;-76
2022/04/19 09:43:27;;;;;;;8.03;6.50;;;;;;;19.66;28.25;101379.63;5028640;28;20476;-76
2022/04/19 09:46:03;;;;;;;7.40;6.70;;;;;;;18.70;29.71;101375.84;5017692;28;20406;-75
2022/04/19 09:48:33;;;;;;;7.83;6.97;;;;;;;17.53;31.47;101372.75;5024357;28;20174;-75
2022/04/19 09:51:04;;;;;;;8.43;7.50;;;;;;;19.10;29.69;101369.13;5013941;28;20828;-74
2022/04/19 09:53:33;;;;;;;7.57;6.87;;;;;;;17.90;30.97;101377.69;5009159;28;20460;-74
2022/04/19 09:55:59;;;;;;;8.07;5.93;;;;;;;17.22;31.50;101387.94;5020073;28;20884;-75
2022/04/19 09:58:26;;;;;;;6.60;6.00;;;;;;;19.72;28.40;101366.31;5020645;28;20429;-74
2022/04/19 10:00:53;;;;;;;6.93;6.33;;;;;;;20.03;27.78;101363.09;5030223;28;20202;-75
2022/04/19 10:08:10;;;;;;;7.20;6.50;;;;;;;19.33;27.90;101358.19;5021452;28;20495;-76
2022/04/19 10:08:54;;;;;;;7.73;5.30;;;;;;;22.36;24.37;101345.97;5031764;28;20433;-75
2022/04/19 10:11:19;;;;;;;6.57;5.97;;;;;;;20.56;27.00;101356.72;5017811;28;20811;-75
2022/04/19 10:13:45;;;;;;;6.60;5.97;;;;;;;18.75;29.39;101368.72;5018002;28;20457;-74
2022/04/19 10:16:14;;;;;;;6.70;6.20;;;;;;;19.32;28.96;101359.06;5017117;28;20306;-74
2022/04/19 10:18:41;;;;;;;6.23;5.63;;;;;;;20.52;27.07;101361.22;5017945;28;20437;-76
2022/04/19 10:21:09;;;;;;;6.20;5.70;;;;;;;21.20;26.07;101352.59;5017895;28;20504;-75
2022/04/19 10:23:39;;;;;;;5.97;5.33;;;;;;;17.99;30.21;101364.41;5017154;28;20420;-75
2022/04/19 10:26:20;;;;;;;10.67;6.50;;;;;;;19.55;28.74;101360.44;5017776;28;20680;-74
2022/04/19 10:28:47;;;;;;;6.80;5.17;;;;;;;21.07;24.53;101369.69;5017599;28;20457;-75
2022/04/19 10:31:13;;;;;;;7.77;5.37;;;;;;;20.65;26.53;101360.03;5017472;28;20442;-74
2022/04/19 10:33:39;;;;;;;8.93;5.47;;;;;;;19.62;26.61;101367.34;5016845;28;20681;-73
2022/04/19 10:36:16;;;;;;;7.47;5.13;;;;;;;19.50;27.61;101358.75;5021729;28;20428;-74
2022/04/19 10:38:43;;;;;;;6.73;5.20;;;;;;;18.89;28.58;101358.00;5020608;28;20176;-75
2022/04/19 10:41:08;;;;;;;5.27;4.77;;;;;;;18.45;29.67;101362.09;5037607;28;20431;-74
2022/04/19 10:43:34;;;;;;;9.07;5.83;;;;;;;18.58;29.19;101360.16;5041222;28;20787;-75
2022/04/19 10:46:21;;;;;;;9.30;6.10;;;;;;;19.94;28.05;101360.63;5026998;28;20193;-76
2022/04/19 10:49:24;;;;;;;9.67;5.60;;;;;;;17.63;31.54;101369.16;5020507;28;20224;-75
2022/04/19 10:51:52;;;;;;;10.70;5.20;;;;;;;17.95;31.10;101367.09;5019433;28;20479;-75
2022/04/19 10:54:56;;;;;;;8.67;5.80;;;;;;;20.04;28.78;101359.56;5024690;28;20433;-74
2022/04/19 11:00:26;;;;;;;14.10;5.87;;;;;;;19.94;28.00;101352.69;5024670;28;20468;-74
2022/04/19 11:03:00;;;;;;;8.53;5.30;;;;;;;20.86;27.72;101364.00;5028213;28;20465;-72
2022/04/19 11:05:43;;;;;;;8.40;5.07;;;;;;;18.34;30.81;101364.88;5024722;28;20429;-71
2022/04/19 11:08:21;;;;;;;5.57;5.07;;;;;;;18.74;30.10;101358.19;5018324;28;20753;-71
2022/04/19 11:11:07;;;;;;;7.40;5.20;;;;;;;20.73;28.76;101359.00;5019991;28;20507;-77
2022/04/19 11:13:36;;;;;;;11.97;5.90;;;;;;;19.15;29.83;101356.72;5011380;28;20511;-80
2022/04/19 11:16:05;;;;;;;8.10;4.77;;;;;;;19.53;29.14;101365.75;5023299;28;20540;-74
2022/04/19 11:18:32;;;;;;;9.57;5.13;;;;;;;21.45;27.54;101343.13;5036481;28;20474;-73
2022/04/19 11:20:59;;;;;;;5.63;4.80;;;;;;;19.78;28.76;101344.16;5015996;28;20435;-76
2022/04/19 11:23:26;;;;;;;14.13;5.27;;;;;;;19.55;29.85;101352.50;5014455;28;20702;-75
2022/04/19 11:25:53;;;;;;;4.73;4.07;;;;;;;18.65;30.58;101351.28;5029318;28;20449;-77
2022/04/19 11:28:22;;;;;;;7.83;4.47;;;;;;;19.83;29.00;101351.13;5023335;28;20560;-76
2022/04/19 11:30:50;;;;;;;4.70;4.10;;;;;;;19.37;29.52;101346.66;5008080;28;20834;-74
2022/04/19 11:33:33;;;;;;;5.10;4.33;;;;;;;18.48;31.15;101349.75;5033090;28;20429;-77
2022/04/19 11:36:10;;;;;;;6.70;4.67;;;;;;;21.28;27.54;101338.25;5024051;28;20515;-76
2022/04/19 11:38:40;;;;;;;6.57;4.80;;;;;;;21.00;27.92;101336.31;5034738;28;20459;-74
2022/04/19 11:46:44;;;;;;;4.00;3.40;;;;;;;17.80;32.16;101349.63;5033972;28;20469;-75
2022/04/19 11:49:19;;;;;;;5.10;4.20;;;;;;;19.83;30.00;101342.31;5019796;28;20437;-74
2022/04/19 11:51:58;;;;;;;5.73;3.80;;;;;;;20.33;28.22;101336.91;5025829;28;20433;-75
2022/04/19 11:54:25;;;;;;;7.63;3.73;;;;;;;20.02;28.54;101334.88;5028330;28;20433;-77
2022/04/19 11:56:55;;;;;;;5.67;3.80;;;;;;;20.28;29.38;101341.41;5019334;28;20779;-78
2022/04/19 11:59:26;;;;;;;3.83;3.53;;;;;;;19.97;28.67;101329.69;5030709;28;20905;-74
2022/04/19 12:01:51;;;;;;;5.00;3.50;;;;;;;19.83;29.26;101334.38;5026509;28;20432;-73
2022/04/19 12:04:17;;;;;;;3.93;3.53;;;;;;;20.26;28.03;101337.94;5035285;28;20469;-74
2022/04/19 12:06:52;;;;;;;3.93;3.53;;;;;;;17.80;31.88;101344.38;5036387;28;20207;-73